Allentown, Pennsylvania
Current Conditions -  °F | °C
As of 2:15 PM on Thursday 27 Nov 2014 (Local Time) from KXLL Reporting Station
Broken Clouds Broken Clouds  
Wind Chill:   Ceiling: 5500
Heat Index:   Visibility: 10mi
Dew Point: -2°   Wind: 3mph
Humidity: 75%   Direction: 290°WNW
Pressure: 30.02"   Gusts: NA
Location:  40.6°N, 75.47°W
Report Text: KXLL 271915Z AUTO 29003KT 10SM SCT029 SCT033 BKN055 02/M02 A3002 RMK AO2
Loading
Personal Weather Stations






























Interactive Weather Map New forecast layout! Learn more

10-Day Weather Forecast

Advertisements
Track Severe Weather on mobile